Terminal Aerodrome Forecast
Issued by NWS

Home | Current Version | Previous Version | Text Only | Print | Product List | Glossary Off
Versions: 1 2 3 4 5 6 7 8 9 10 11 12 13 14 15

000
FTUS43 KMPX 212324
TAFRWF
TAF
KRWF 212324Z 2200/2224 16007KT P6SM SCT050 BKN120
     FM220500 24005KT P6SM SCT120
     FM220900 32005KT P6SM -SHRA BKN050 OVC100
     FM221800 02007KT P6SM OVC050=

USA.gov is the U.S. government's official web portal to all federal, state and local government web resources and services.